sensor_id;sensor_type;location;lat;lon;timestamp;P1;durP1;ratioP1;P2;durP2;ratioP2
34064;SDS011;20339;49.754;20.158;2023-05-16T00:01:00;1.90;;;1.50;;
34064;SDS011;20339;49.754;20.158;2023-05-16T00:03:35;2.30;;;1.30;;
34064;SDS011;20339;49.754;20.158;2023-05-16T00:06:09;1.60;;;1.40;;
34064;SDS011;20339;49.754;20.158;2023-05-16T00:08:42;1.80;;;1.30;;
34064;SDS011;20339;49.754;20.158;2023-05-16T00:11:15;1.80;;;1.30;;
34064;SDS011;20339;49.754;20.158;2023-05-16T00:13:46;2.20;;;1.70;;
34064;SDS011;20339;49.754;20.158;2023-05-16T00:16:18;1.60;;;1.30;;
34064;SDS011;20339;49.754;20.158;2023-05-16T00:18:52;1.90;;;1.30;;
34064;SDS011;20339;49.754;20.158;2023-05-16T00:21:24;3.90;;;1.50;;
34064;SDS011;20339;49.754;20.158;2023-05-16T00:23:56;1.30;;;1.10;;
34064;SDS011;20339;49.754;20.158;2023-05-16T00:26:29;2.70;;;1.30;;
34064;SDS011;20339;49.754;20.158;2023-05-16T00:29:02;1.90;;;1.40;;
34064;SDS011;20339;49.754;20.158;2023-05-16T00:31:33;1.70;;;1.40;;
34064;SDS011;20339;49.754;20.158;2023-05-16T00:34:09;1.40;;;1.10;;
34064;SDS011;20339;49.754;20.158;2023-05-16T00:36:41;1.80;;;1.40;;
34064;SDS011;20339;49.754;20.158;2023-05-16T00:39:14;1.30;;;1.10;;
34064;SDS011;20339;49.754;20.158;2023-05-16T00:41:50;1.80;;;1.20;;
34064;SDS011;20339;49.754;20.158;2023-05-16T00:44:21;1.90;;;1.50;;
34064;SDS011;20339;49.754;20.158;2023-05-16T00:46:52;1.80;;;1.20;;
34064;SDS011;20339;49.754;20.158;2023-05-16T00:49:29;2.20;;;1.10;;
34064;SDS011;20339;49.754;20.158;2023-05-16T00:52:04;3.40;;;1.50;;
34064;SDS011;20339;49.754;20.158;2023-05-16T00:54:40;1.90;;;1.10;;
34064;SDS011;20339;49.754;20.158;2023-05-16T00:57:14;2.10;;;1.20;;
34064;SDS011;20339;49.754;20.158;2023-05-16T00:59:45;1.40;;;1.20;;
34064;SDS011;20339;49.754;20.158;2023-05-16T01:02:16;2.10;;;1.30;;
34064;SDS011;20339;49.754;20.158;2023-05-16T01:04:47;1.10;;;0.90;;
34064;SDS011;20339;49.754;20.158;2023-05-16T01:07:18;2.40;;;1.00;;
34064;SDS011;20339;49.754;20.158;2023-05-16T01:09:50;2.80;;;1.40;;
34064;SDS011;20339;49.754;20.158;2023-05-16T01:12:23;1.60;;;1.10;;
34064;SDS011;20339;49.754;20.158;2023-05-16T01:15:03;1.80;;;1.10;;
34064;SDS011;20339;49.754;20.158;2023-05-16T01:17:37;1.50;;;1.20;;
34064;SDS011;20339;49.754;20.158;2023-05-16T01:20:24;0.90;;;0.90;;
34064;SDS011;20339;49.754;20.158;2023-05-16T01:23:06;3.90;;;1.20;;
34064;SDS011;20339;49.754;20.158;2023-05-16T01:25:53;1.10;;;0.80;;
34064;SDS011;20339;49.754;20.158;2023-05-16T01:28:29;1.30;;;1.20;;
34064;SDS011;20339;49.754;20.158;2023-05-16T01:31:02;1.30;;;1.10;;
34064;SDS011;20339;49.754;20.158;2023-05-16T01:33:33;1.30;;;1.10;;
34064;SDS011;20339;49.754;20.158;2023-05-16T01:36:05;1.40;;;1.20;;
34064;SDS011;20339;49.754;20.158;2023-05-16T01:38:43;1.80;;;1.30;;
34064;SDS011;20339;49.754;20.158;2023-05-16T01:43:55;1.60;;;1.30;;
34064;SDS011;20339;49.754;20.158;2023-05-16T01:46:36;1.10;;;1.00;;
34064;SDS011;20339;49.754;20.158;2023-05-16T01:49:13;2.10;;;1.20;;
34064;SDS011;20339;49.754;20.158;2023-05-16T01:51:51;1.40;;;1.10;;
34064;SDS011;20339;49.754;20.158;2023-05-16T01:54:29;1.40;;;1.30;;
34064;SDS011;20339;49.754;20.158;2023-05-16T01:57:03;1.60;;;1.40;;
34064;SDS011;20339;49.754;20.158;2023-05-16T01:59:35;2.20;;;1.10;;
34064;SDS011;20339;49.754;20.158;2023-05-16T02:02:06;2.50;;;1.40;;
34064;SDS011;20339;49.754;20.158;2023-05-16T02:04:37;1.90;;;1.20;;
34064;SDS011;20339;49.754;20.158;2023-05-16T02:07:08;1.50;;;1.20;;
34064;SDS011;20339;49.754;20.158;2023-05-16T02:09:41;1.40;;;1.10;;
34064;SDS011;20339;49.754;20.158;2023-05-16T02:12:12;1.10;;;1.00;;
34064;SDS011;20339;49.754;20.158;2023-05-16T02:14:44;1.30;;;1.20;;
34064;SDS011;20339;49.754;20.158;2023-05-16T02:17:15;1.10;;;1.00;;
34064;SDS011;20339;49.754;20.158;2023-05-16T02:19:46;1.10;;;1.00;;
34064;SDS011;20339;49.754;20.158;2023-05-16T02:22:17;1.50;;;1.00;;
34064;SDS011;20339;49.754;20.158;2023-05-16T02:24:48;1.30;;;1.20;;
34064;SDS011;20339;49.754;20.158;2023-05-16T02:27:19;1.90;;;1.10;;
34064;SDS011;20339;49.754;20.158;2023-05-16T02:29:50;2.30;;;1.20;;
34064;SDS011;20339;49.754;20.158;2023-05-16T02:32:21;1.40;;;1.10;;
34064;SDS011;20339;49.754;20.158;2023-05-16T02:34:53;1.20;;;1.10;;
34064;SDS011;20339;49.754;20.158;2023-05-16T02:37:24;1.50;;;1.30;;
34064;SDS011;20339;49.754;20.158;2023-05-16T02:39:55;1.30;;;1.20;;
34064;SDS011;20339;49.754;20.158;2023-05-16T02:42:28;1.00;;;1.00;;
34064;SDS011;20339;49.754;20.158;2023-05-16T02:44:59;1.70;;;1.40;;
34064;SDS011;20339;49.754;20.158;2023-05-16T02:47:30;1.20;;;1.10;;
34064;SDS011;20339;49.754;20.158;2023-05-16T02:50:04;2.50;;;1.50;;
34064;SDS011;20339;49.754;20.158;2023-05-16T02:52:36;1.20;;;0.90;;
34064;SDS011;20339;49.754;20.158;2023-05-16T02:55:07;1.50;;;1.30;;
34064;SDS011;20339;49.754;20.158;2023-05-16T02:57:39;1.50;;;1.10;;
34064;SDS011;20339;49.754;20.158;2023-05-16T03:00:11;1.30;;;1.10;;
34064;SDS011;20339;49.754;20.158;2023-05-16T03:02:43;1.90;;;1.20;;
34064;SDS011;20339;49.754;20.158;2023-05-16T03:05:14;1.90;;;1.20;;
34064;SDS011;20339;49.754;20.158;2023-05-16T03:07:45;2.60;;;1.10;;
34064;SDS011;20339;49.754;20.158;2023-05-16T03:10:16;1.80;;;1.00;;
34064;SDS011;20339;49.754;20.158;2023-05-16T03:12:49;1.30;;;1.10;;
34064;SDS011;20339;49.754;20.158;2023-05-16T03:15:20;2.00;;;1.10;;
34064;SDS011;20339;49.754;20.158;2023-05-16T03:17:53;1.30;;;1.10;;
34064;SDS011;20339;49.754;20.158;2023-05-16T03:20:24;1.20;;;1.00;;
34064;SDS011;20339;49.754;20.158;2023-05-16T03:22:55;1.20;;;1.10;;
34064;SDS011;20339;49.754;20.158;2023-05-16T03:25:26;1.10;;;1.00;;
34064;SDS011;20339;49.754;20.158;2023-05-16T03:27:59;2.40;;;1.10;;
34064;SDS011;20339;49.754;20.158;2023-05-16T03:30:32;1.40;;;1.20;;
34064;SDS011;20339;49.754;20.158;2023-05-16T03:33:03;1.40;;;1.10;;
34064;SDS011;20339;49.754;20.158;2023-05-16T03:35:34;1.80;;;1.30;;
34064;SDS011;20339;49.754;20.158;2023-05-16T03:38:06;1.30;;;1.00;;
34064;SDS011;20339;49.754;20.158;2023-05-16T03:40:37;1.20;;;1.10;;
34064;SDS011;20339;49.754;20.158;2023-05-16T03:43:07;1.20;;;1.10;;
34064;SDS011;20339;49.754;20.158;2023-05-16T03:45:38;1.60;;;1.20;;
34064;SDS011;20339;49.754;20.158;2023-05-16T03:48:11;1.10;;;1.00;;
34064;SDS011;20339;49.754;20.158;2023-05-16T03:50:42;1.10;;;1.00;;
34064;SDS011;20339;49.754;20.158;2023-05-16T03:53:14;1.40;;;1.20;;
34064;SDS011;20339;49.754;20.158;2023-05-16T03:55:45;1.10;;;1.00;;
34064;SDS011;20339;49.754;20.158;2023-05-16T03:58:17;2.10;;;1.30;;
34064;SDS011;20339;49.754;20.158;2023-05-16T04:00:48;1.90;;;1.40;;
34064;SDS011;20339;49.754;20.158;2023-05-16T04:03:19;1.50;;;1.40;;
34064;SDS011;20339;49.754;20.158;2023-05-16T04:05:55;0.90;;;0.90;;
34064;SDS011;20339;49.754;20.158;2023-05-16T04:08:26;3.90;;;1.50;;
34064;SDS011;20339;49.754;20.158;2023-05-16T04:10:57;2.80;;;1.40;;
34064;SDS011;20339;49.754;20.158;2023-05-16T04:13:28;1.30;;;1.20;;
34064;SDS011;20339;49.754;20.158;2023-05-16T04:16:01;1.20;;;1.00;;
34064;SDS011;20339;49.754;20.158;2023-05-16T04:18:33;1.70;;;1.10;;
34064;SDS011;20339;49.754;20.158;2023-05-16T04:21:04;1.30;;;1.20;;
34064;SDS011;20339;49.754;20.158;2023-05-16T04:23:40;1.40;;;1.30;;
34064;SDS011;20339;49.754;20.158;2023-05-16T04:26:13;1.30;;;1.20;;
34064;SDS011;20339;49.754;20.158;2023-05-16T04:28:47;2.10;;;1.20;;
34064;SDS011;20339;49.754;20.158;2023-05-16T04:31:18;1.40;;;1.30;;
34064;SDS011;20339;49.754;20.158;2023-05-16T04:33:50;3.50;;;1.00;;
34064;SDS011;20339;49.754;20.158;2023-05-16T04:36:21;1.20;;;1.00;;
34064;SDS011;20339;49.754;20.158;2023-05-16T04:38:53;1.30;;;1.10;;
34064;SDS011;20339;49.754;20.158;2023-05-16T04:41:24;1.40;;;1.30;;
34064;SDS011;20339;49.754;20.158;2023-05-16T04:43:55;1.60;;;1.30;;
34064;SDS011;20339;49.754;20.158;2023-05-16T04:46:26;1.20;;;1.10;;
34064;SDS011;20339;49.754;20.158;2023-05-16T04:48:57;1.30;;;1.20;;
34064;SDS011;20339;49.754;20.158;2023-05-16T04:51:28;1.20;;;1.10;;
34064;SDS011;20339;49.754;20.158;2023-05-16T04:54:03;1.20;;;1.10;;
34064;SDS011;20339;49.754;20.158;2023-05-16T04:56:35;1.10;;;1.00;;
34064;SDS011;20339;49.754;20.158;2023-05-16T04:59:06;1.70;;;1.20;;
34064;SDS011;20339;49.754;20.158;2023-05-16T05:01:37;1.30;;;1.20;;
34064;SDS011;20339;49.754;20.158;2023-05-16T05:04:08;1.10;;;0.80;;
34064;SDS011;20339;49.754;20.158;2023-05-16T05:06:39;1.60;;;1.00;;
34064;SDS011;20339;49.754;20.158;2023-05-16T05:09:10;1.30;;;1.10;;
34064;SDS011;20339;49.754;20.158;2023-05-16T05:11:41;2.80;;;1.20;;
34064;SDS011;20339;49.754;20.158;2023-05-16T05:14:13;1.40;;;1.30;;
34064;SDS011;20339;49.754;20.158;2023-05-16T05:16:44;1.60;;;1.30;;
34064;SDS011;20339;49.754;20.158;2023-05-16T05:19:14;1.80;;;1.30;;
34064;SDS011;20339;49.754;20.158;2023-05-16T05:21:48;2.00;;;1.40;;
34064;SDS011;20339;49.754;20.158;2023-05-16T05:24:19;1.50;;;1.20;;
34064;SDS011;20339;49.754;20.158;2023-05-16T05:26:50;2.30;;;1.00;;
34064;SDS011;20339;49.754;20.158;2023-05-16T05:29:21;1.80;;;1.20;;
34064;SDS011;20339;49.754;20.158;2023-05-16T05:31:52;3.10;;;1.20;;
34064;SDS011;20339;49.754;20.158;2023-05-16T05:34:23;1.10;;;1.00;;
34064;SDS011;20339;49.754;20.158;2023-05-16T05:36:54;1.00;;;1.00;;
34064;SDS011;20339;49.754;20.158;2023-05-16T05:39:25;2.60;;;1.50;;
34064;SDS011;20339;49.754;20.158;2023-05-16T05:41:56;1.10;;;1.00;;
34064;SDS011;20339;49.754;20.158;2023-05-16T05:44:30;3.90;;;1.10;;
34064;SDS011;20339;49.754;20.158;2023-05-16T05:47:01;1.40;;;1.30;;
34064;SDS011;20339;49.754;20.158;2023-05-16T05:49:33;2.40;;;1.30;;
34064;SDS011;20339;49.754;20.158;2023-05-16T05:52:04;2.50;;;1.30;;
34064;SDS011;20339;49.754;20.158;2023-05-16T05:54:36;2.10;;;1.10;;
34064;SDS011;20339;49.754;20.158;2023-05-16T05:57:07;2.20;;;1.30;;
34064;SDS011;20339;49.754;20.158;2023-05-16T05:59:38;1.60;;;1.50;;
34064;SDS011;20339;49.754;20.158;2023-05-16T06:02:09;2.40;;;1.50;;
34064;SDS011;20339;49.754;20.158;2023-05-16T06:04:40;1.50;;;1.30;;
34064;SDS011;20339;49.754;20.158;2023-05-16T06:07:12;1.90;;;1.30;;
34064;SDS011;20339;49.754;20.158;2023-05-16T06:09:43;2.30;;;1.40;;
34064;SDS011;20339;49.754;20.158;2023-05-16T06:12:19;2.30;;;1.10;;
34064;SDS011;20339;49.754;20.158;2023-05-16T06:14:50;2.20;;;1.20;;
34064;SDS011;20339;49.754;20.158;2023-05-16T06:17:26;1.20;;;1.10;;
34064;SDS011;20339;49.754;20.158;2023-05-16T06:19:57;1.30;;;1.20;;
34064;SDS011;20339;49.754;20.158;2023-05-16T06:22:36;1.40;;;1.10;;
34064;SDS011;20339;49.754;20.158;2023-05-16T06:25:08;1.70;;;1.00;;
34064;SDS011;20339;49.754;20.158;2023-05-16T06:27:42;1.60;;;1.10;;
34064;SDS011;20339;49.754;20.158;2023-05-16T06:30:13;1.30;;;1.20;;
34064;SDS011;20339;49.754;20.158;2023-05-16T06:32:44;1.20;;;1.10;;
34064;SDS011;20339;49.754;20.158;2023-05-16T06:35:16;2.50;;;1.10;;
34064;SDS011;20339;49.754;20.158;2023-05-16T06:37:50;2.80;;;1.10;;
34064;SDS011;20339;49.754;20.158;2023-05-16T06:40:24;2.30;;;1.20;;
34064;SDS011;20339;49.754;20.158;2023-05-16T06:42:54;1.50;;;1.10;;
34064;SDS011;20339;49.754;20.158;2023-05-16T06:45:33;1.60;;;1.10;;
34064;SDS011;20339;49.754;20.158;2023-05-16T06:48:05;1.10;;;0.90;;
34064;SDS011;20339;49.754;20.158;2023-05-16T06:50:37;1.00;;;0.90;;
34064;SDS011;20339;49.754;20.158;2023-05-16T06:53:10;1.40;;;1.30;;
34064;SDS011;20339;49.754;20.158;2023-05-16T06:55:42;2.30;;;1.10;;
34064;SDS011;20339;49.754;20.158;2023-05-16T06:58:15;1.80;;;1.40;;
34064;SDS011;20339;49.754;20.158;2023-05-16T07:00:49;1.60;;;1.40;;
34064;SDS011;20339;49.754;20.158;2023-05-16T07:03:20;1.50;;;1.40;;
34064;SDS011;20339;49.754;20.158;2023-05-16T07:05:51;2.00;;;1.20;;
34064;SDS011;20339;49.754;20.158;2023-05-16T07:08:24;1.60;;;1.30;;
34064;SDS011;20339;49.754;20.158;2023-05-16T07:10:55;1.60;;;1.50;;
34064;SDS011;20339;49.754;20.158;2023-05-16T07:13:26;2.30;;;1.60;;
34064;SDS011;20339;49.754;20.158;2023-05-16T07:15:57;1.20;;;1.10;;
34064;SDS011;20339;49.754;20.158;2023-05-16T07:18:30;1.90;;;1.40;;
34064;SDS011;20339;49.754;20.158;2023-05-16T07:21:01;1.90;;;1.70;;
34064;SDS011;20339;49.754;20.158;2023-05-16T07:23:32;2.30;;;1.50;;
34064;SDS011;20339;49.754;20.158;2023-05-16T07:26:03;1.90;;;1.60;;
34064;SDS011;20339;49.754;20.158;2023-05-16T07:28:34;2.80;;;1.80;;
34064;SDS011;20339;49.754;20.158;2023-05-16T07:31:05;4.50;;;1.80;;
34064;SDS011;20339;49.754;20.158;2023-05-16T07:33:36;1.80;;;1.70;;
34064;SDS011;20339;49.754;20.158;2023-05-16T07:36:08;2.40;;;1.90;;
34064;SDS011;20339;49.754;20.158;2023-05-16T07:38:39;2.10;;;1.90;;
34064;SDS011;20339;49.754;20.158;2023-05-16T07:41:10;2.30;;;1.80;;
34064;SDS011;20339;49.754;20.158;2023-05-16T07:43:42;2.50;;;1.90;;
34064;SDS011;20339;49.754;20.158;2023-05-16T07:46:12;2.50;;;2.20;;
34064;SDS011;20339;49.754;20.158;2023-05-16T07:48:43;2.80;;;2.50;;
34064;SDS011;20339;49.754;20.158;2023-05-16T07:51:14;2.70;;;2.30;;
34064;SDS011;20339;49.754;20.158;2023-05-16T07:53:45;2.40;;;2.20;;
34064;SDS011;20339;49.754;20.158;2023-05-16T07:56:16;4.10;;;2.50;;
34064;SDS011;20339;49.754;20.158;2023-05-16T07:58:48;2.80;;;2.50;;
34064;SDS011;20339;49.754;20.158;2023-05-16T08:01:19;3.30;;;2.50;;
34064;SDS011;20339;49.754;20.158;2023-05-16T08:03:50;5.20;;;2.80;;
34064;SDS011;20339;49.754;20.158;2023-05-16T08:06:21;5.10;;;2.90;;
34064;SDS011;20339;49.754;20.158;2023-05-16T08:08:52;3.00;;;2.70;;
34064;SDS011;20339;49.754;20.158;2023-05-16T08:11:23;5.70;;;2.70;;
34064;SDS011;20339;49.754;20.158;2023-05-16T08:13:54;5.10;;;2.90;;
34064;SDS011;20339;49.754;20.158;2023-05-16T08:16:24;2.80;;;2.50;;
34064;SDS011;20339;49.754;20.158;2023-05-16T08:18:55;4.50;;;2.90;;
34064;SDS011;20339;49.754;20.158;2023-05-16T08:21:26;3.00;;;2.70;;
34064;SDS011;20339;49.754;20.158;2023-05-16T08:23:58;4.30;;;3.00;;
34064;SDS011;20339;49.754;20.158;2023-05-16T08:26:31;3.40;;;2.90;;
34064;SDS011;20339;49.754;20.158;2023-05-16T08:29:02;5.50;;;2.80;;
34064;SDS011;20339;49.754;20.158;2023-05-16T08:31:33;3.20;;;2.80;;
34064;SDS011;20339;49.754;20.158;2023-05-16T08:34:04;3.80;;;2.70;;
34064;SDS011;20339;49.754;20.158;2023-05-16T08:36:36;3.00;;;2.50;;
34064;SDS011;20339;49.754;20.158;2023-05-16T08:39:07;4.40;;;3.20;;
34064;SDS011;20339;49.754;20.158;2023-05-16T08:41:39;3.10;;;2.80;;
34064;SDS011;20339;49.754;20.158;2023-05-16T08:44:10;2.80;;;2.50;;
34064;SDS011;20339;49.754;20.158;2023-05-16T08:46:49;2.60;;;2.40;;
34064;SDS011;20339;49.754;20.158;2023-05-16T08:49:22;5.40;;;2.80;;
34064;SDS011;20339;49.754;20.158;2023-05-16T08:51:56;4.60;;;3.10;;
34064;SDS011;20339;49.754;20.158;2023-05-16T08:54:28;4.10;;;2.60;;
34064;SDS011;20339;49.754;20.158;2023-05-16T08:57:00;3.50;;;3.20;;
34064;SDS011;20339;49.754;20.158;2023-05-16T08:59:31;6.80;;;3.10;;
34064;SDS011;20339;49.754;20.158;2023-05-16T09:02:02;3.70;;;3.10;;
34064;SDS011;20339;49.754;20.158;2023-05-16T09:04:34;4.80;;;2.70;;
34064;SDS011;20339;49.754;20.158;2023-05-16T09:07:08;3.50;;;3.20;;
34064;SDS011;20339;49.754;20.158;2023-05-16T09:09:40;4.50;;;3.10;;
34064;SDS011;20339;49.754;20.158;2023-05-16T09:12:11;5.40;;;3.30;;
34064;SDS011;20339;49.754;20.158;2023-05-16T09:14:42;4.90;;;3.00;;
34064;SDS011;20339;49.754;20.158;2023-05-16T09:17:14;5.20;;;3.30;;
34064;SDS011;20339;49.754;20.158;2023-05-16T09:19:45;3.20;;;2.90;;
34064;SDS011;20339;49.754;20.158;2023-05-16T09:22:20;3.70;;;2.90;;
34064;SDS011;20339;49.754;20.158;2023-05-16T09:24:53;5.60;;;3.00;;
34064;SDS011;20339;49.754;20.158;2023-05-16T09:27:29;3.90;;;2.70;;
34064;SDS011;20339;49.754;20.158;2023-05-16T09:30:00;3.50;;;3.10;;
34064;SDS011;20339;49.754;20.158;2023-05-16T09:32:32;4.30;;;2.90;;
34064;SDS011;20339;49.754;20.158;2023-05-16T09:35:03;3.60;;;3.10;;
34064;SDS011;20339;49.754;20.158;2023-05-16T09:37:39;4.20;;;2.90;;
34064;SDS011;20339;49.754;20.158;2023-05-16T09:40:15;4.80;;;3.60;;
34064;SDS011;20339;49.754;20.158;2023-05-16T09:42:48;4.40;;;3.20;;
34064;SDS011;20339;49.754;20.158;2023-05-16T09:45:32;3.90;;;2.90;;
34064;SDS011;20339;49.754;20.158;2023-05-16T09:48:04;3.50;;;2.70;;
34064;SDS011;20339;49.754;20.158;2023-05-16T09:50:40;3.20;;;2.90;;
34064;SDS011;20339;49.754;20.158;2023-05-16T09:53:19;3.30;;;3.00;;
34064;SDS011;20339;49.754;20.158;2023-05-16T09:56:02;2.80;;;2.60;;
34064;SDS011;20339;49.754;20.158;2023-05-16T09:58:35;3.10;;;2.70;;
34064;SDS011;20339;49.754;20.158;2023-05-16T10:01:07;3.60;;;3.10;;
34064;SDS011;20339;49.754;20.158;2023-05-16T10:03:39;3.30;;;2.90;;
34064;SDS011;20339;49.754;20.158;2023-05-16T10:06:10;3.50;;;3.10;;
34064;SDS011;20339;49.754;20.158;2023-05-16T10:08:43;3.50;;;3.20;;
34064;SDS011;20339;49.754;20.158;2023-05-16T10:11:15;8.10;;;4.00;;
34064;SDS011;20339;49.754;20.158;2023-05-16T10:13:48;3.80;;;3.40;;
34064;SDS011;20339;49.754;20.158;2023-05-16T10:16:21;3.50;;;3.20;;
34064;SDS011;20339;49.754;20.158;2023-05-16T10:18:53;3.60;;;3.20;;
34064;SDS011;20339;49.754;20.158;2023-05-16T10:21:29;4.90;;;3.90;;
34064;SDS011;20339;49.754;20.158;2023-05-16T10:24:06;4.90;;;3.80;;
34064;SDS011;20339;49.754;20.158;2023-05-16T10:26:40;5.10;;;4.00;;
34064;SDS011;20339;49.754;20.158;2023-05-16T10:29:11;5.00;;;3.70;;
34064;SDS011;20339;49.754;20.158;2023-05-16T10:31:42;5.40;;;3.50;;
34064;SDS011;20339;49.754;20.158;2023-05-16T10:34:14;3.80;;;3.20;;
34064;SDS011;20339;49.754;20.158;2023-05-16T10:36:46;4.80;;;3.50;;
34064;SDS011;20339;49.754;20.158;2023-05-16T10:39:17;5.50;;;3.80;;
34064;SDS011;20339;49.754;20.158;2023-05-16T10:41:49;4.30;;;3.70;;
34064;SDS011;20339;49.754;20.158;2023-05-16T10:44:20;4.50;;;3.50;;
34064;SDS011;20339;49.754;20.158;2023-05-16T10:46:51;6.30;;;4.40;;
34064;SDS011;20339;49.754;20.158;2023-05-16T10:49:23;3.90;;;3.50;;
34064;SDS011;20339;49.754;20.158;2023-05-16T10:52:06;4.30;;;3.60;;
34064;SDS011;20339;49.754;20.158;2023-05-16T10:54:38;5.20;;;3.70;;
34064;SDS011;20339;49.754;20.158;2023-05-16T10:57:10;6.10;;;4.30;;
34064;SDS011;20339;49.754;20.158;2023-05-16T10:59:47;4.00;;;3.60;;
34064;SDS011;20339;49.754;20.158;2023-05-16T11:02:27;4.90;;;4.10;;
34064;SDS011;20339;49.754;20.158;2023-05-16T11:05:00;9.00;;;4.30;;
34064;SDS011;20339;49.754;20.158;2023-05-16T11:07:34;5.30;;;4.20;;
34064;SDS011;20339;49.754;20.158;2023-05-16T11:10:06;4.00;;;3.60;;
34064;SDS011;20339;49.754;20.158;2023-05-16T11:12:43;5.50;;;4.10;;
34064;SDS011;20339;49.754;20.158;2023-05-16T11:15:20;5.40;;;4.10;;
34064;SDS011;20339;49.754;20.158;2023-05-16T11:18:07;4.50;;;3.90;;
34064;SDS011;20339;49.754;20.158;2023-05-16T11:20:45;5.10;;;4.30;;
34064;SDS011;20339;49.754;20.158;2023-05-16T11:23:23;5.60;;;4.30;;
34064;SDS011;20339;49.754;20.158;2023-05-16T11:25:55;5.60;;;4.10;;
34064;SDS011;20339;49.754;20.158;2023-05-16T11:28:28;4.70;;;4.00;;
34064;SDS011;20339;49.754;20.158;2023-05-16T11:31:00;5.30;;;4.00;;
34064;SDS011;20339;49.754;20.158;2023-05-16T11:33:32;7.00;;;4.50;;
34064;SDS011;20339;49.754;20.158;2023-05-16T11:36:04;6.60;;;4.10;;
34064;SDS011;20339;49.754;20.158;2023-05-16T11:38:38;5.60;;;5.00;;
34064;SDS011;20339;49.754;20.158;2023-05-16T11:41:10;6.10;;;4.50;;
34064;SDS011;20339;49.754;20.158;2023-05-16T11:43:43;4.50;;;4.10;;
34064;SDS011;20339;49.754;20.158;2023-05-16T11:46:15;6.50;;;4.10;;
34064;SDS011;20339;49.754;20.158;2023-05-16T11:48:46;4.00;;;3.60;;
34064;SDS011;20339;49.754;20.158;2023-05-16T11:51:18;4.30;;;3.50;;
34064;SDS011;20339;49.754;20.158;2023-05-16T11:53:50;4.40;;;4.00;;
34064;SDS011;20339;49.754;20.158;2023-05-16T11:56:21;5.80;;;3.70;;
34064;SDS011;20339;49.754;20.158;2023-05-16T11:58:54;4.80;;;4.00;;
34064;SDS011;20339;49.754;20.158;2023-05-16T12:01:26;5.90;;;3.70;;
34064;SDS011;20339;49.754;20.158;2023-05-16T12:04:02;4.40;;;3.90;;
34064;SDS011;20339;49.754;20.158;2023-05-16T12:06:39;4.20;;;3.60;;
34064;SDS011;20339;49.754;20.158;2023-05-16T12:09:12;3.90;;;3.60;;
34064;SDS011;20339;49.754;20.158;2023-05-16T12:11:43;7.30;;;3.90;;
34064;SDS011;20339;49.754;20.158;2023-05-16T12:14:14;6.20;;;4.40;;
34064;SDS011;20339;49.754;20.158;2023-05-16T12:16:45;7.40;;;5.30;;
34064;SDS011;20339;49.754;20.158;2023-05-16T12:19:17;6.10;;;4.30;;
34064;SDS011;20339;49.754;20.158;2023-05-16T12:21:52;5.20;;;4.40;;
34064;SDS011;20339;49.754;20.158;2023-05-16T12:24:29;5.20;;;4.00;;
34064;SDS011;20339;49.754;20.158;2023-05-16T12:27:00;4.70;;;3.80;;
34064;SDS011;20339;49.754;20.158;2023-05-16T12:29:32;7.80;;;5.30;;
34064;SDS011;20339;49.754;20.158;2023-05-16T12:32:03;7.80;;;4.90;;
34064;SDS011;20339;49.754;20.158;2023-05-16T12:34:37;9.90;;;4.40;;
34064;SDS011;20339;49.754;20.158;2023-05-16T12:37:08;5.40;;;4.00;;
34064;SDS011;20339;49.754;20.158;2023-05-16T12:39:39;4.60;;;4.10;;
34064;SDS011;20339;49.754;20.158;2023-05-16T12:42:11;4.60;;;4.20;;
34064;SDS011;20339;49.754;20.158;2023-05-16T12:44:45;5.60;;;3.80;;
34064;SDS011;20339;49.754;20.158;2023-05-16T12:47:16;4.60;;;4.20;;
34064;SDS011;20339;49.754;20.158;2023-05-16T12:49:48;4.70;;;4.10;;
34064;SDS011;20339;49.754;20.158;2023-05-16T12:52:19;4.60;;;4.10;;
34064;SDS011;20339;49.754;20.158;2023-05-16T12:54:51;4.70;;;4.30;;
34064;SDS011;20339;49.754;20.158;2023-05-16T12:57:22;5.60;;;4.90;;
34064;SDS011;20339;49.754;20.158;2023-05-16T12:59:53;8.60;;;4.60;;
34064;SDS011;20339;49.754;20.158;2023-05-16T13:02:24;4.80;;;4.10;;
34064;SDS011;20339;49.754;20.158;2023-05-16T13:04:56;6.50;;;4.30;;
34064;SDS011;20339;49.754;20.158;2023-05-16T13:07:27;5.30;;;4.40;;
34064;SDS011;20339;49.754;20.158;2023-05-16T13:09:59;4.90;;;4.50;;
34064;SDS011;20339;49.754;20.158;2023-05-16T13:12:31;6.10;;;4.80;;
34064;SDS011;20339;49.754;20.158;2023-05-16T13:15:02;5.50;;;4.80;;
34064;SDS011;20339;49.754;20.158;2023-05-16T13:17:35;5.50;;;5.00;;
34064;SDS011;20339;49.754;20.158;2023-05-16T13:20:08;6.10;;;4.00;;
34064;SDS011;20339;49.754;20.158;2023-05-16T13:22:47;3.90;;;3.40;;
34064;SDS011;20339;49.754;20.158;2023-05-16T13:25:19;3.80;;;3.50;;
34064;SDS011;20339;49.754;20.158;2023-05-16T13:27:50;3.90;;;3.60;;
34064;SDS011;20339;49.754;20.158;2023-05-16T13:30:21;5.20;;;4.30;;
34064;SDS011;20339;49.754;20.158;2023-05-16T13:32:52;7.20;;;4.30;;
34064;SDS011;20339;49.754;20.158;2023-05-16T13:35:23;4.10;;;3.70;;
34064;SDS011;20339;49.754;20.158;2023-05-16T13:37:54;5.20;;;4.40;;
34064;SDS011;20339;49.754;20.158;2023-05-16T13:40:26;4.50;;;4.10;;
34064;SDS011;20339;49.754;20.158;2023-05-16T13:42:57;5.80;;;4.20;;
34064;SDS011;20339;49.754;20.158;2023-05-16T13:45:28;5.00;;;4.30;;
34064;SDS011;20339;49.754;20.158;2023-05-16T13:48:00;4.60;;;4.10;;
34064;SDS011;20339;49.754;20.158;2023-05-16T13:50:31;5.10;;;3.90;;
34064;SDS011;20339;49.754;20.158;2023-05-16T13:53:02;5.20;;;4.40;;
34064;SDS011;20339;49.754;20.158;2023-05-16T13:55:33;6.00;;;4.60;;
34064;SDS011;20339;49.754;20.158;2023-05-16T13:58:04;6.80;;;4.30;;
34064;SDS011;20339;49.754;20.158;2023-05-16T14:00:36;4.90;;;4.40;;
34064;SDS011;20339;49.754;20.158;2023-05-16T14:03:07;4.70;;;4.30;;
34064;SDS011;20339;49.754;20.158;2023-05-16T14:05:38;4.50;;;4.00;;
34064;SDS011;20339;49.754;20.158;2023-05-16T14:08:09;5.20;;;4.70;;
34064;SDS011;20339;49.754;20.158;2023-05-16T14:10:41;5.60;;;4.80;;
34064;SDS011;20339;49.754;20.158;2023-05-16T14:13:11;4.70;;;4.20;;
34064;SDS011;20339;49.754;20.158;2023-05-16T14:15:43;5.40;;;4.20;;
34064;SDS011;20339;49.754;20.158;2023-05-16T14:18:14;5.60;;;4.80;;
34064;SDS011;20339;49.754;20.158;2023-05-16T14:20:45;4.30;;;3.90;;
34064;SDS011;20339;49.754;20.158;2023-05-16T14:23:17;6.10;;;4.50;;
34064;SDS011;20339;49.754;20.158;2023-05-16T14:25:48;4.50;;;4.00;;
34064;SDS011;20339;49.754;20.158;2023-05-16T14:28:19;5.50;;;4.20;;
34064;SDS011;20339;49.754;20.158;2023-05-16T14:30:51;4.50;;;4.00;;
34064;SDS011;20339;49.754;20.158;2023-05-16T14:33:22;5.90;;;4.50;;
34064;SDS011;20339;49.754;20.158;2023-05-16T14:35:53;5.30;;;4.40;;
34064;SDS011;20339;49.754;20.158;2023-05-16T14:38:24;5.80;;;4.80;;
34064;SDS011;20339;49.754;20.158;2023-05-16T14:40:55;5.70;;;5.00;;
34064;SDS011;20339;49.754;20.158;2023-05-16T14:43:27;8.60;;;5.10;;
34064;SDS011;20339;49.754;20.158;2023-05-16T14:45:58;5.60;;;5.10;;
34064;SDS011;20339;49.754;20.158;2023-05-16T14:48:29;5.50;;;5.00;;
34064;SDS011;20339;49.754;20.158;2023-05-16T14:51:01;5.90;;;5.10;;
34064;SDS011;20339;49.754;20.158;2023-05-16T14:53:32;7.00;;;4.70;;
34064;SDS011;20339;49.754;20.158;2023-05-16T14:56:04;6.10;;;4.70;;
34064;SDS011;20339;49.754;20.158;2023-05-16T14:58:35;5.70;;;4.60;;
34064;SDS011;20339;49.754;20.158;2023-05-16T15:01:06;5.00;;;4.50;;
34064;SDS011;20339;49.754;20.158;2023-05-16T15:03:38;4.60;;;4.10;;
34064;SDS011;20339;49.754;20.158;2023-05-16T15:06:09;5.90;;;4.80;;